sensor_id;sensor_type;location;lat;lon;timestamp;P1;durP1;ratioP1;P2;durP2;ratioP2
50086;SDS011;35967;50.718;7.050;2024-01-30T00:00:17;14.73;;;7.47;;
50086;SDS011;35967;50.718;7.050;2024-01-30T00:10:22;13.77;;;6.37;;
50086;SDS011;35967;50.718;7.050;2024-01-30T00:20:26;11.00;;;7.17;;
50086;SDS011;35967;50.718;7.050;2024-01-30T00:30:29;12.83;;;7.10;;
50086;SDS011;35967;50.718;7.050;2024-01-30T00:40:34;13.33;;;7.20;;
50086;SDS011;35967;50.718;7.050;2024-01-30T00:50:37;13.17;;;6.37;;
50086;SDS011;35967;50.718;7.050;2024-01-30T01:00:41;13.67;;;6.47;;
50086;SDS011;35967;50.718;7.050;2024-01-30T01:10:44;11.80;;;6.03;;
50086;SDS011;35967;50.718;7.050;2024-01-30T01:20:49;11.97;;;6.83;;
50086;SDS011;35967;50.718;7.050;2024-01-30T01:30:52;12.37;;;6.13;;
50086;SDS011;35967;50.718;7.050;2024-01-30T01:40:56;10.20;;;5.67;;
50086;SDS011;35967;50.718;7.050;2024-01-30T01:50:59;12.73;;;6.23;;
50086;SDS011;35967;50.718;7.050;2024-01-30T02:01:04;12.57;;;5.20;;
50086;SDS011;35967;50.718;7.050;2024-01-30T02:11:08;12.27;;;6.37;;
50086;SDS011;35967;50.718;7.050;2024-01-30T02:21:13;13.53;;;5.70;;
50086;SDS011;35967;50.718;7.050;2024-01-30T02:31:16;15.10;;;6.47;;
50086;SDS011;35967;50.718;7.050;2024-01-30T02:41:21;14.00;;;7.03;;
50086;SDS011;35967;50.718;7.050;2024-01-30T02:51:24;12.80;;;6.23;;
50086;SDS011;35967;50.718;7.050;2024-01-30T03:01:28;11.17;;;5.97;;
50086;SDS011;35967;50.718;7.050;2024-01-30T03:11:31;11.93;;;5.77;;
50086;SDS011;35967;50.718;7.050;2024-01-30T03:21:36;11.23;;;6.10;;
50086;SDS011;35967;50.718;7.050;2024-01-30T03:31:39;10.70;;;6.07;;
50086;SDS011;35967;50.718;7.050;2024-01-30T03:41:44;16.57;;;6.93;;
50086;SDS011;35967;50.718;7.050;2024-01-30T03:51:47;13.80;;;6.27;;
50086;SDS011;35967;50.718;7.050;2024-01-30T04:01:52;12.70;;;6.40;;
50086;SDS011;35967;50.718;7.050;2024-01-30T04:11:55;15.10;;;6.13;;
50086;SDS011;35967;50.718;7.050;2024-01-30T04:22:00;11.10;;;5.80;;
50086;SDS011;35967;50.718;7.050;2024-01-30T04:32:03;14.37;;;6.40;;
50086;SDS011;35967;50.718;7.050;2024-01-30T04:42:08;12.37;;;6.70;;
50086;SDS011;35967;50.718;7.050;2024-01-30T04:52:11;10.87;;;5.83;;
50086;SDS011;35967;50.718;7.050;2024-01-30T05:02:16;12.13;;;5.43;;
50086;SDS011;35967;50.718;7.050;2024-01-30T05:12:19;11.17;;;5.93;;
50086;SDS011;35967;50.718;7.050;2024-01-30T05:22:23;14.43;;;6.53;;
50086;SDS011;35967;50.718;7.050;2024-01-30T05:32:26;12.20;;;6.07;;
50086;SDS011;35967;50.718;7.050;2024-01-30T05:42:31;10.43;;;5.90;;
50086;SDS011;35967;50.718;7.050;2024-01-30T05:52:34;11.40;;;6.10;;
50086;SDS011;35967;50.718;7.050;2024-01-30T06:02:39;15.33;;;7.00;;
50086;SDS011;35967;50.718;7.050;2024-01-30T06:12:42;18.37;;;6.60;;
50086;SDS011;35967;50.718;7.050;2024-01-30T06:22:46;13.93;;;6.63;;
50086;SDS011;35967;50.718;7.050;2024-01-30T06:32:49;15.03;;;6.87;;
50086;SDS011;35967;50.718;7.050;2024-01-30T06:42:54;12.47;;;6.13;;
50086;SDS011;35967;50.718;7.050;2024-01-30T06:52:57;13.47;;;6.73;;
50086;SDS011;35967;50.718;7.050;2024-01-30T07:03:02;11.90;;;6.27;;
50086;SDS011;35967;50.718;7.050;2024-01-30T07:13:05;12.23;;;6.53;;
50086;SDS011;35967;50.718;7.050;2024-01-30T07:23:09;13.53;;;6.40;;
50086;SDS011;35967;50.718;7.050;2024-01-30T07:33:15;10.47;;;6.43;;
50086;SDS011;35967;50.718;7.050;2024-01-30T07:43:20;10.57;;;5.80;;
50086;SDS011;35967;50.718;7.050;2024-01-30T07:53:24;9.30;;;6.00;;
50086;SDS011;35967;50.718;7.050;2024-01-30T08:03:29;10.43;;;6.13;;
50086;SDS011;35967;50.718;7.050;2024-01-30T08:13:32;10.17;;;6.07;;
50086;SDS011;35967;50.718;7.050;2024-01-30T08:23:37;15.77;;;6.70;;
50086;SDS011;35967;50.718;7.050;2024-01-30T08:33:40;11.20;;;5.97;;
50086;SDS011;35967;50.718;7.050;2024-01-30T08:43:47;12.30;;;5.90;;
50086;SDS011;35967;50.718;7.050;2024-01-30T08:53:50;14.33;;;6.00;;
50086;SDS011;35967;50.718;7.050;2024-01-30T09:03:55;11.57;;;5.23;;
50086;SDS011;35967;50.718;7.050;2024-01-30T09:14:01;7.67;;;4.23;;
50086;SDS011;35967;50.718;7.050;2024-01-30T09:24:06;7.13;;;4.00;;
50086;SDS011;35967;50.718;7.050;2024-01-30T09:34:10;10.43;;;4.10;;
50086;SDS011;35967;50.718;7.050;2024-01-30T09:44:16;10.40;;;3.93;;
50086;SDS011;35967;50.718;7.050;2024-01-30T09:54:19;14.13;;;3.67;;
50086;SDS011;35967;50.718;7.050;2024-01-30T10:04:24;6.43;;;3.37;;
50086;SDS011;35967;50.718;7.050;2024-01-30T10:14:28;7.30;;;3.60;;
50086;SDS011;35967;50.718;7.050;2024-01-30T10:24:32;17.03;;;3.63;;
50086;SDS011;35967;50.718;7.050;2024-01-30T10:34:36;6.20;;;2.67;;
50086;SDS011;35967;50.718;7.050;2024-01-30T10:44:47;9.80;;;2.97;;
50086;SDS011;35967;50.718;7.050;2024-01-30T10:54:57;10.13;;;3.10;;
50086;SDS011;35967;50.718;7.050;2024-01-30T11:05:04;7.30;;;3.03;;
50086;SDS011;35967;50.718;7.050;2024-01-30T11:15:08;12.60;;;2.97;;
50086;SDS011;35967;50.718;7.050;2024-01-30T11:25:14;8.10;;;3.13;;
50086;SDS011;35967;50.718;7.050;2024-01-30T11:35:18;7.77;;;3.30;;
50086;SDS011;35967;50.718;7.050;2024-01-30T11:45:23;9.97;;;3.33;;
50086;SDS011;35967;50.718;7.050;2024-01-30T11:55:28;7.27;;;2.73;;
50086;SDS011;35967;50.718;7.050;2024-01-30T12:05:37;8.80;;;2.90;;
50086;SDS011;35967;50.718;7.050;2024-01-30T12:15:44;8.57;;;3.37;;
50086;SDS011;35967;50.718;7.050;2024-01-30T12:25:49;8.83;;;3.20;;
50086;SDS011;35967;50.718;7.050;2024-01-30T12:35:52;9.07;;;3.10;;
50086;SDS011;35967;50.718;7.050;2024-01-30T12:46:05;6.67;;;3.00;;
50086;SDS011;35967;50.718;7.050;2024-01-30T12:56:08;6.87;;;2.80;;
50086;SDS011;35967;50.718;7.050;2024-01-30T13:06:13;12.27;;;3.93;;
50086;SDS011;35967;50.718;7.050;2024-01-30T13:16:16;15.03;;;4.17;;
50086;SDS011;35967;50.718;7.050;2024-01-30T13:26:21;10.97;;;4.63;;
50086;SDS011;35967;50.718;7.050;2024-01-30T13:36:24;11.10;;;4.37;;
50086;SDS011;35967;50.718;7.050;2024-01-30T13:46:29;11.07;;;5.13;;
50086;SDS011;35967;50.718;7.050;2024-01-30T13:56:32;9.30;;;4.07;;
50086;SDS011;35967;50.718;7.050;2024-01-30T14:06:37;12.73;;;4.63;;
50086;SDS011;35967;50.718;7.050;2024-01-30T14:16:54;13.17;;;4.33;;
50086;SDS011;35967;50.718;7.050;2024-01-30T14:26:58;10.63;;;4.83;;
50086;SDS011;35967;50.718;7.050;2024-01-30T14:37:02;13.07;;;5.77;;
50086;SDS011;35967;50.718;7.050;2024-01-30T14:47:07;10.87;;;4.53;;
50086;SDS011;35967;50.718;7.050;2024-01-30T14:57:11;13.87;;;4.60;;
50086;SDS011;35967;50.718;7.050;2024-01-30T15:07:17;13.07;;;4.20;;
50086;SDS011;35967;50.718;7.050;2024-01-30T15:17:33;13.53;;;5.03;;
50086;SDS011;35967;50.718;7.050;2024-01-30T15:27:38;14.60;;;7.10;;
50086;SDS011;35967;50.718;7.050;2024-01-30T15:37:41;9.83;;;4.93;;
50086;SDS011;35967;50.718;7.050;2024-01-30T15:47:46;10.07;;;3.07;;
50086;SDS011;35967;50.718;7.050;2024-01-30T15:57:50;9.03;;;2.57;;
50086;SDS011;35967;50.718;7.050;2024-01-30T16:07:55;11.83;;;3.50;;
50086;SDS011;35967;50.718;7.050;2024-01-30T16:17:58;8.53;;;2.77;;
50086;SDS011;35967;50.718;7.050;2024-01-30T16:28:02;8.47;;;2.83;;
50086;SDS011;35967;50.718;7.050;2024-01-30T16:38:06;7.90;;;4.17;;
50086;SDS011;35967;50.718;7.050;2024-01-30T16:48:11;7.60;;;2.77;;
50086;SDS011;35967;50.718;7.050;2024-01-30T17:08:23;14.10;;;4.30;;
50086;SDS011;35967;50.718;7.050;2024-01-30T17:18:26;13.27;;;3.27;;
50086;SDS011;35967;50.718;7.050;2024-01-30T17:28:31;6.60;;;2.73;;
50086;SDS011;35967;50.718;7.050;2024-01-30T17:38:34;9.07;;;2.27;;
50086;SDS011;35967;50.718;7.050;2024-01-30T17:48:39;5.73;;;2.13;;
50086;SDS011;35967;50.718;7.050;2024-01-30T17:58:43;5.93;;;1.80;;
50086;SDS011;35967;50.718;7.050;2024-01-30T18:08:47;3.97;;;1.00;;
50086;SDS011;35967;50.718;7.050;2024-01-30T18:18:51;5.63;;;1.10;;
50086;SDS011;35967;50.718;7.050;2024-01-30T18:28:55;3.43;;;0.80;;
50086;SDS011;35967;50.718;7.050;2024-01-30T18:38:58;5.47;;;1.13;;
50086;SDS011;35967;50.718;7.050;2024-01-30T18:49:02;5.43;;;1.33;;
50086;SDS011;35967;50.718;7.050;2024-01-30T18:59:06;5.03;;;1.00;;
50086;SDS011;35967;50.718;7.050;2024-01-30T19:09:11;4.93;;;1.20;;
50086;SDS011;35967;50.718;7.050;2024-01-30T19:19:14;5.53;;;0.80;;
50086;SDS011;35967;50.718;7.050;2024-01-30T19:29:19;4.13;;;1.00;;
50086;SDS011;35967;50.718;7.050;2024-01-30T19:39:22;7.60;;;1.23;;
50086;SDS011;35967;50.718;7.050;2024-01-30T19:49:26;3.97;;;0.90;;
50086;SDS011;35967;50.718;7.050;2024-01-30T19:59:30;4.43;;;1.30;;
50086;SDS011;35967;50.718;7.050;2024-01-30T20:09:34;2.87;;;0.87;;
50086;SDS011;35967;50.718;7.050;2024-01-30T20:19:37;4.30;;;0.90;;
50086;SDS011;35967;50.718;7.050;2024-01-30T20:29:42;6.17;;;0.90;;
50086;SDS011;35967;50.718;7.050;2024-01-30T20:39:45;4.07;;;0.90;;
50086;SDS011;35967;50.718;7.050;2024-01-30T20:49:50;4.00;;;0.80;;
50086;SDS011;35967;50.718;7.050;2024-01-30T20:59:53;6.53;;;1.00;;
50086;SDS011;35967;50.718;7.050;2024-01-30T21:09:57;5.97;;;1.00;;
50086;SDS011;35967;50.718;7.050;2024-01-30T21:20:00;5.33;;;0.80;;
50086;SDS011;35967;50.718;7.050;2024-01-30T21:30:06;8.70;;;0.60;;
50086;SDS011;35967;50.718;7.050;2024-01-30T21:40:10;3.40;;;0.70;;
50086;SDS011;35967;50.718;7.050;2024-01-30T21:50:18;8.67;;;1.17;;
50086;SDS011;35967;50.718;7.050;2024-01-30T22:00:21;2.97;;;0.80;;
50086;SDS011;35967;50.718;7.050;2024-01-30T22:10:26;4.93;;;0.90;;
50086;SDS011;35967;50.718;7.050;2024-01-30T22:20:29;4.57;;;0.97;;
50086;SDS011;35967;50.718;7.050;2024-01-30T22:30:34;4.37;;;1.00;;
50086;SDS011;35967;50.718;7.050;2024-01-30T22:40:38;6.63;;;1.10;;
50086;SDS011;35967;50.718;7.050;2024-01-30T22:50:42;5.20;;;1.20;;
50086;SDS011;35967;50.718;7.050;2024-01-30T23:00:46;7.73;;;1.40;;
50086;SDS011;35967;50.718;7.050;2024-01-30T23:10:51;8.57;;;1.97;;
50086;SDS011;35967;50.718;7.050;2024-01-30T23:21:09;5.90;;;1.70;;
50086;SDS011;35967;50.718;7.050;2024-01-30T23:31:13;7.30;;;2.37;;
50086;SDS011;35967;50.718;7.050;2024-01-30T23:41:16;7.00;;;2.50;;
50086;SDS011;35967;50.718;7.050;2024-01-30T23:51:22;5.90;;;2.40;;
